createdAt,value
2019-04-29T00:01:44.513Z,1.70
2019-04-29T00:04:12.821Z,1.70
2019-04-29T00:06:41.231Z,1.70
2019-04-29T00:09:09.635Z,1.60
2019-04-29T00:11:38.026Z,1.70
2019-04-29T00:14:07.278Z,1.70
2019-04-29T00:16:40.953Z,1.70
2019-04-29T00:19:14.973Z,1.70
2019-04-29T00:21:43.462Z,1.60
2019-04-29T00:24:11.876Z,1.60
2019-04-29T00:26:40.522Z,1.60
2019-04-29T00:29:08.943Z,1.50
2019-04-29T00:31:37.331Z,1.50
2019-04-29T00:34:05.975Z,1.40
2019-04-29T00:36:39.314Z,1.40
2019-04-29T00:39:12.927Z,1.40
2019-04-29T00:41:46.310Z,1.40
2019-04-29T00:44:16.593Z,1.30
2019-04-29T00:46:45.090Z,1.30
2019-04-29T00:49:13.672Z,1.30
2019-04-29T00:51:42.142Z,1.30
2019-04-29T00:54:14.736Z,1.30
2019-04-29T00:56:43.335Z,1.20
2019-04-29T00:59:11.735Z,1.20
2019-04-29T01:01:40.290Z,1.20
2019-04-29T01:04:08.848Z,1.20
2019-04-29T01:06:37.207Z,1.10
2019-04-29T01:09:06.176Z,1.10
2019-04-29T01:11:34.957Z,1.10
2019-04-29T01:14:03.358Z,1.10
2019-04-29T01:16:31.687Z,1.10
2019-04-29T01:19:00.069Z,1.10
2019-04-29T01:21:28.491Z,1.10
2019-04-29T01:23:56.895Z,1.10
2019-04-29T01:27:34.268Z,1.10
2019-04-29T01:30:02.847Z,1.10
2019-04-29T01:32:31.153Z,1.10
2019-04-29T01:34:59.547Z,1.00
2019-04-29T01:37:37.440Z,1.00
2019-04-29T01:40:16.237Z,1.00
2019-04-29T01:42:44.619Z,0.90
2019-04-29T01:45:13.207Z,0.90
2019-04-29T01:47:41.486Z,0.90
2019-04-29T01:50:10.146Z,0.80
2019-04-29T01:52:38.563Z,0.80
2019-04-29T01:55:07.024Z,0.80
2019-04-29T01:57:35.323Z,0.80
2019-04-29T02:00:03.930Z,0.70
2019-04-29T02:02:32.477Z,0.70
2019-04-29T02:05:01.061Z,0.70
2019-04-29T02:07:29.394Z,0.70
2019-04-29T02:10:05.788Z,0.60
2019-04-29T02:12:34.125Z,0.60
2019-04-29T02:15:02.511Z,0.60
2019-04-29T02:17:30.805Z,0.50
2019-04-29T02:19:59.170Z,0.50
2019-04-29T02:22:32.556Z,0.50
2019-04-29T02:25:05.091Z,0.40
2019-04-29T02:27:33.414Z,0.40
2019-04-29T02:30:02.137Z,0.40
2019-04-29T02:32:30.448Z,0.40
2019-04-29T02:34:58.777Z,0.40
2019-04-29T02:37:30.342Z,0.40
2019-04-29T02:40:06.179Z,0.40
2019-04-29T02:42:44.748Z,0.30
2019-04-29T02:45:16.689Z,0.30
2019-04-29T02:47:45.097Z,0.30
2019-04-29T02:50:13.544Z,0.30
2019-04-29T02:52:41.839Z,0.30
2019-04-29T02:55:10.618Z,0.30
2019-04-29T02:57:42.362Z,0.30
2019-04-29T03:01:13.253Z,0.30
2019-04-29T03:04:01.019Z,0.20
2019-04-29T03:06:29.516Z,0.20
2019-04-29T03:08:58.154Z,0.20
2019-04-29T03:11:26.607Z,0.20
2019-04-29T03:13:55.265Z,0.20
2019-04-29T03:16:23.797Z,0.20
2019-04-29T03:18:54.860Z,0.20
2019-04-29T03:21:33.470Z,0.20
2019-04-29T03:24:01.990Z,0.20
2019-04-29T03:26:30.336Z,0.20
2019-04-29T03:28:58.703Z,0.30
2019-04-29T03:31:27.464Z,0.30
2019-04-29T03:33:55.804Z,0.40
2019-04-29T03:36:24.214Z,0.40
2019-04-29T03:38:52.563Z,0.50
2019-04-29T03:41:21.105Z,0.50
2019-04-29T03:43:49.452Z,0.50
2019-04-29T03:46:17.803Z,0.50
2019-04-29T03:48:46.147Z,0.50
2019-04-29T03:51:14.955Z,0.60
2019-04-29T03:53:43.304Z,0.50
2019-04-29T03:56:11.657Z,0.60
2019-04-29T03:58:40.008Z,0.60
2019-04-29T04:01:15.645Z,0.60
2019-04-29T04:03:48.101Z,0.60
2019-04-29T04:06:21.840Z,0.70
2019-04-29T04:09:05.334Z,0.80
2019-04-29T04:11:22.030Z,0.80
2019-04-29T04:13:50.374Z,0.90
2019-04-29T04:16:26.189Z,0.90
2019-04-29T04:18:58.713Z,0.90
2019-04-29T04:21:27.063Z,1.00
2019-04-29T04:23:58.104Z,1.00
2019-04-29T04:26:23.989Z,1.10
2019-04-29T04:28:52.364Z,1.10
2019-04-29T04:31:21.712Z,1.30
2019-04-29T04:33:50.654Z,1.60
2019-04-29T04:36:19.077Z,1.80
2019-04-29T04:38:47.534Z,2.00
2019-04-29T04:41:15.893Z,2.10
2019-04-29T04:43:44.643Z,2.30
2019-04-29T04:46:13.163Z,2.50
2019-04-29T04:48:41.659Z,2.70
2019-04-29T04:51:10.006Z,2.80
2019-04-29T04:53:38.532Z,3.00
2019-04-29T04:56:06.857Z,3.20
2019-04-29T04:58:35.632Z,3.40
2019-04-29T05:01:04.351Z,3.50
2019-04-29T05:03:33.218Z,3.60
2019-04-29T05:06:01.528Z,3.60
2019-04-29T05:08:29.810Z,3.70
2019-04-29T05:10:58.266Z,3.80
2019-04-29T05:13:28.350Z,3.90
2019-04-29T05:15:55.119Z,3.90
2019-04-29T05:18:23.408Z,4.00
2019-04-29T05:20:51.785Z,4.10
2019-04-29T05:23:20.106Z,4.20
2019-04-29T05:25:48.416Z,4.20
2019-04-29T05:28:16.695Z,4.30
2019-04-29T05:30:45.183Z,4.30
2019-04-29T05:33:13.882Z,4.30
2019-04-29T05:35:49.623Z,4.40
2019-04-29T05:38:28.770Z,4.60
2019-04-29T05:40:57.282Z,4.70
2019-04-29T05:43:32.026Z,4.80
2019-04-29T05:46:03.394Z,4.90
2019-04-29T05:48:32.311Z,5.00
2019-04-29T05:51:07.245Z,5.20
2019-04-29T05:53:39.592Z,5.30
2019-04-29T05:56:07.933Z,5.40
2019-04-29T05:58:37.894Z,5.40
2019-04-29T06:01:09.128Z,5.50
2019-04-29T06:03:38.183Z,5.60
2019-04-29T06:06:06.253Z,5.70
2019-04-29T06:08:39.208Z,5.70
2019-04-29T06:11:02.989Z,5.70
2019-04-29T06:13:31.347Z,5.80
2019-04-29T06:15:59.916Z,5.90
2019-04-29T06:18:28.268Z,6.00
2019-04-29T06:21:08.358Z,6.20
2019-04-29T06:23:25.261Z,6.30
2019-04-29T06:25:53.695Z,6.40
2019-04-29T06:28:26.328Z,6.40
2019-04-29T06:30:51.887Z,6.50
2019-04-29T06:33:18.971Z,6.60
2019-04-29T06:35:48.699Z,6.70
2019-04-29T06:38:16.230Z,6.80
2019-04-29T06:40:44.634Z,7.00
2019-04-29T06:43:13.021Z,7.10
2019-04-29T06:45:41.383Z,7.30
2019-04-29T06:48:09.878Z,7.50
2019-04-29T06:50:38.305Z,7.70
2019-04-29T06:53:06.919Z,7.90
2019-04-29T06:55:35.302Z,8.20
2019-04-29T06:58:03.732Z,8.30
2019-04-29T07:00:32.115Z,8.50
2019-04-29T07:03:00.430Z,8.60
2019-04-29T07:05:28.804Z,8.80
2019-04-29T07:07:57.138Z,9.00
2019-04-29T07:10:27.116Z,9.20
2019-04-29T07:12:53.876Z,9.50
2019-04-29T07:15:22.461Z,9.70
2019-04-29T07:17:50.771Z,10.00
2019-04-29T07:20:19.184Z,10.20
2019-04-29T07:22:47.507Z,10.60
2019-04-29T07:25:16.123Z,10.90
2019-04-29T07:27:44.672Z,11.30
2019-04-29T07:30:12.921Z,11.50
2019-04-29T07:32:42.261Z,11.90
2019-04-29T07:35:11.526Z,12.20
2019-04-29T07:37:38.826Z,12.30
2019-04-29T07:40:07.996Z,12.40
2019-04-29T07:42:36.024Z,12.80
2019-04-29T07:45:10.076Z,13.10
2019-04-29T07:47:38.764Z,13.10
2019-04-29T07:50:07.265Z,13.30
2019-04-29T07:52:35.937Z,13.40
2019-04-29T07:55:04.393Z,13.70
2019-04-29T07:57:32.754Z,14.00
2019-04-29T08:00:01.247Z,14.40
2019-04-29T08:02:29.604Z,14.10
2019-04-29T08:04:58.174Z,14.30
2019-04-29T08:07:26.533Z,14.30
2019-04-29T08:09:54.886Z,14.00
2019-04-29T08:12:23.489Z,13.80
2019-04-29T08:14:53.389Z,14.10
2019-04-29T08:17:20.414Z,14.10
2019-04-29T08:19:48.747Z,14.50
2019-04-29T08:22:18.332Z,15.00
2019-04-29T08:24:45.855Z,15.10
2019-04-29T08:27:13.821Z,15.10
2019-04-29T08:29:42.139Z,15.50
2019-04-29T08:32:10.460Z,15.50
2019-04-29T08:34:40.940Z,15.80
2019-04-29T08:37:07.470Z,16.20
2019-04-29T08:39:35.793Z,16.20
2019-04-29T08:42:08.950Z,16.30
2019-04-29T08:44:41.429Z,16.00
2019-04-29T08:47:23.634Z,16.20
2019-04-29T08:49:47.949Z,16.40
2019-04-29T08:52:16.270Z,16.90
2019-04-29T08:54:44.615Z,16.60
2019-04-29T08:57:13.155Z,16.60
2019-04-29T08:59:41.486Z,16.80
2019-04-29T09:02:10.567Z,17.10
2019-04-29T09:04:52.464Z,16.50
2019-04-29T09:07:12.737Z,17.00
2019-04-29T09:09:35.527Z,17.30
2019-04-29T09:12:03.888Z,17.40
2019-04-29T09:14:32.545Z,18.10
2019-04-29T09:17:00.923Z,18.50
2019-04-29T09:19:29.256Z,18.90
2019-04-29T09:21:59.559Z,19.30
2019-04-29T09:24:27.892Z,19.60
2019-04-29T09:27:04.983Z,19.40
2019-04-29T09:29:32.472Z,19.10
2019-04-29T09:32:00.815Z,18.90
2019-04-29T09:34:29.096Z,19.30
2019-04-29T09:36:57.424Z,19.60
2019-04-29T09:39:25.842Z,19.50
2019-04-29T09:43:14.845Z,19.30
2019-04-29T09:45:36.060Z,19.00
2019-04-29T09:48:04.447Z,18.60
2019-04-29T09:50:34.175Z,18.30
2019-04-29T09:53:01.427Z,18.20
2019-04-29T09:55:29.783Z,18.10
2019-04-29T09:57:58.153Z,18.20
2019-04-29T10:00:31.669Z,18.50
2019-04-29T10:03:03.904Z,19.00
2019-04-29T10:05:40.475Z,19.00
2019-04-29T10:08:08.957Z,18.90
2019-04-29T10:10:37.505Z,19.40
2019-04-29T10:13:06.053Z,19.10
2019-04-29T10:15:39.807Z,18.90
2019-04-29T10:18:13.256Z,19.20
2019-04-29T10:20:45.879Z,20.00
2019-04-29T10:23:14.284Z,20.40
2019-04-29T10:25:42.629Z,20.80
2019-04-29T10:28:11.025Z,20.30
2019-04-29T10:30:39.718Z,20.20
2019-04-29T10:33:08.402Z,20.90
2019-04-29T10:35:40.835Z,21.70
2019-04-29T10:38:05.766Z,22.10
2019-04-29T10:40:38.746Z,21.40
2019-04-29T10:43:26.356Z,20.60
2019-04-29T10:46:26.092Z,20.80
2019-04-29T10:49:03.458Z,20.40
2019-04-29T10:51:28.560Z,19.80
2019-04-29T10:53:55.956Z,20.30
2019-04-29T10:56:24.332Z,21.20
2019-04-29T10:58:52.672Z,22.00
2019-04-29T11:02:34.128Z,22.20
2019-04-29T11:05:44.673Z,21.60
2019-04-29T11:08:14.358Z,21.00
2019-04-29T11:10:42.709Z,21.40
2019-04-29T11:13:11.247Z,21.80
2019-04-29T11:15:39.712Z,22.00
2019-04-29T11:18:08.115Z,21.70
2019-04-29T11:20:36.721Z,21.20
2019-04-29T11:23:16.686Z,21.40
2019-04-29T11:25:50.976Z,20.90
2019-04-29T11:28:16.089Z,20.80
2019-04-29T11:30:42.566Z,20.30
2019-04-29T11:33:16.620Z,20.40
2019-04-29T11:35:49.174Z,19.60
2019-04-29T11:38:17.822Z,19.00
2019-04-29T11:40:46.351Z,19.50
2019-04-29T11:43:15.634Z,20.10
2019-04-29T11:45:43.585Z,20.20
2019-04-29T11:48:12.228Z,19.70
2019-04-29T11:50:45.180Z,19.60
2019-04-29T11:53:13.682Z,20.00
2019-04-29T11:55:44.556Z,19.90
2019-04-29T11:58:14.668Z,19.50
2019-04-29T12:00:47.316Z,19.10
2019-04-29T12:03:18.909Z,19.10
2019-04-29T12:05:50.049Z,19.40
2019-04-29T12:08:18.909Z,19.70
2019-04-29T12:11:05.532Z,19.70
2019-04-29T12:13:27.110Z,19.90
2019-04-29T12:15:53.699Z,20.00
2019-04-29T12:18:26.321Z,20.10
2019-04-29T12:21:00.090Z,19.90
2019-04-29T12:23:28.481Z,19.70
2019-04-29T12:25:58.593Z,19.50
2019-04-29T12:28:27.006Z,19.30
2019-04-29T12:30:54.318Z,19.40
2019-04-29T12:33:27.057Z,19.50
2019-04-29T12:36:03.237Z,19.80
2019-04-29T12:39:43.056Z,19.70
2019-04-29T12:44:07.630Z,19.80
2019-04-29T12:46:43.362Z,19.40
2019-04-29T12:49:13.774Z,18.90
2019-04-29T12:51:40.421Z,18.80
2019-04-29T12:54:08.795Z,18.60
2019-04-29T12:56:37.975Z,18.30
2019-04-29T12:59:06.772Z,17.90
2019-04-29T13:01:51.337Z,17.70
2019-04-29T13:04:14.887Z,17.90
2019-04-29T13:06:47.630Z,18.30
2019-04-29T13:09:20.238Z,18.60
2019-04-29T13:11:52.153Z,18.70
2019-04-29T13:14:16.939Z,18.70
2019-04-29T13:16:57.559Z,18.90
2019-04-29T13:19:50.229Z,18.80
2019-04-29T13:22:15.521Z,18.90
2019-04-29T13:24:42.651Z,19.10
2019-04-29T13:27:16.227Z,19.30
2019-04-29T13:29:38.893Z,19.20
2019-04-29T13:32:07.165Z,18.70
2019-04-29T13:34:38.105Z,18.60
2019-04-29T13:37:08.047Z,18.50
2019-04-29T13:39:39.678Z,18.40
2019-04-29T13:42:09.264Z,18.20
2019-04-29T13:44:31.798Z,18.20
2019-04-29T13:47:05.638Z,18.20
2019-04-29T13:49:39.376Z,18.10
2019-04-29T13:52:07.853Z,18.00
2019-04-29T13:54:37.348Z,18.00
2019-04-29T13:57:08.917Z,18.00
2019-04-29T13:59:42.032Z,17.90
2019-04-29T14:02:15.045Z,17.80
2019-04-29T14:04:48.069Z,17.80
2019-04-29T14:07:18.323Z,17.70
2019-04-29T14:09:47.754Z,17.50
2019-04-29T14:12:47.112Z,17.50
2019-04-29T14:14:42.485Z,17.50
2019-04-29T14:17:25.218Z,17.70
2019-04-29T14:19:42.281Z,17.90
2019-04-29T14:22:21.589Z,18.00
2019-04-29T14:24:36.487Z,18.10
2019-04-29T14:27:05.096Z,18.00
2019-04-29T14:29:33.672Z,18.20
2019-04-29T14:32:02.035Z,18.30
2019-04-29T14:34:49.911Z,18.40
2019-04-29T14:37:23.468Z,18.50
2019-04-29T14:39:47.012Z,18.50
2019-04-29T14:42:20.554Z,18.50
2019-04-29T14:44:56.830Z,18.60
2019-04-29T14:47:30.570Z,18.60
2019-04-29T14:50:01.186Z,18.70
2019-04-29T14:52:29.484Z,18.90
2019-04-29T14:54:58.033Z,18.90
2019-04-29T14:57:26.407Z,18.90
2019-04-29T14:59:54.950Z,18.70
2019-04-29T15:02:25.316Z,18.70
2019-04-29T15:04:53.776Z,18.60
2019-04-29T15:07:22.373Z,18.50
2019-04-29T15:09:55.698Z,18.10
2019-04-29T15:13:11.442Z,17.70
2019-04-29T15:15:40.070Z,17.30
2019-04-29T15:18:18.514Z,17.00
2019-04-29T15:20:47.642Z,16.80
2019-04-29T15:23:27.929Z,16.40
2019-04-29T15:25:44.428Z,16.20
2019-04-29T15:28:12.963Z,16.20
2019-04-29T15:30:48.276Z,16.30
2019-04-29T15:33:16.581Z,16.30
2019-04-29T15:35:44.916Z,16.30
2019-04-29T15:38:13.323Z,16.00
2019-04-29T15:40:43.130Z,16.00
2019-04-29T15:43:10.503Z,16.00
2019-04-29T15:45:40.562Z,16.00
2019-04-29T15:48:07.614Z,15.90
2019-04-29T15:50:37.221Z,15.80
2019-04-29T15:53:04.616Z,15.60
2019-04-29T15:55:34.848Z,15.40
2019-04-29T15:58:01.870Z,15.60
2019-04-29T16:00:36.640Z,15.60
2019-04-29T16:02:58.435Z,15.50
2019-04-29T16:05:32.309Z,15.50
2019-04-29T16:08:06.791Z,15.60
2019-04-29T16:12:45.533Z,15.60
2019-04-29T16:15:11.822Z,15.70
2019-04-29T16:17:40.133Z,15.50
2019-04-29T16:20:08.688Z,15.10
2019-04-29T16:22:39.284Z,14.90
2019-04-29T16:25:11.129Z,14.80
2019-04-29T16:27:34.253Z,14.70
2019-04-29T16:30:02.677Z,14.70
2019-04-29T16:32:35.371Z,14.60
2019-04-29T16:35:04.308Z,14.50
2019-04-29T16:37:33.359Z,14.40
2019-04-29T16:40:01.488Z,14.30
2019-04-29T16:42:36.795Z,14.30
2019-04-29T16:45:06.463Z,14.20
2019-04-29T16:47:34.250Z,14.20
2019-04-29T16:50:04.816Z,14.30
2019-04-29T16:52:31.724Z,14.20
2019-04-29T16:55:03.963Z,14.20
2019-04-29T16:57:28.455Z,14.20
2019-04-29T16:59:57.020Z,14.00
2019-04-29T17:02:25.386Z,13.90
2019-04-29T17:04:53.814Z,13.80
2019-04-29T17:07:22.765Z,13.60
2019-04-29T17:09:55.435Z,13.70
2019-04-29T17:12:29.459Z,13.70
2019-04-29T17:15:04.119Z,13.70
2019-04-29T17:17:28.888Z,13.60
2019-04-29T17:19:51.406Z,13.60
2019-04-29T17:22:27.736Z,13.60
2019-04-29T17:24:48.205Z,13.50
2019-04-29T17:27:20.806Z,13.40
2019-04-29T17:29:55.564Z,13.30
2019-04-29T17:32:42.249Z,13.20
2019-04-29T17:35:01.825Z,13.20
2019-04-29T17:37:32.016Z,13.10
2019-04-29T17:39:58.400Z,13.00
2019-04-29T17:42:26.958Z,12.90
2019-04-29T17:44:55.368Z,12.90
2019-04-29T17:47:49.160Z,12.80
2019-04-29T17:50:30.397Z,12.60
2019-04-29T17:52:53.827Z,12.50
2019-04-29T17:55:38.108Z,12.40
2019-04-29T17:58:19.410Z,12.30
2019-04-29T18:00:56.247Z,12.20
2019-04-29T18:03:27.207Z,12.00
2019-04-29T18:06:01.950Z,11.90
2019-04-29T18:08:38.695Z,11.70
2019-04-29T18:11:08.234Z,11.50
2019-04-29T18:13:35.875Z,11.40
2019-04-29T18:16:16.656Z,11.20
2019-04-29T18:18:45.852Z,11.00
2019-04-29T18:21:14.974Z,10.90
2019-04-29T18:23:56.740Z,10.80
2019-04-29T18:26:27.202Z,10.60
2019-04-29T18:28:58.320Z,10.50
2019-04-29T18:31:26.504Z,10.30
2019-04-29T18:33:52.604Z,10.20
2019-04-29T18:36:24.326Z,10.10
2019-04-29T18:38:50.343Z,10.00
2019-04-29T18:41:24.582Z,9.90
2019-04-29T18:43:47.172Z,9.80
2019-04-29T18:46:16.719Z,9.70
2019-04-29T18:48:45.618Z,9.60
2019-04-29T18:51:13.017Z,9.50
2019-04-29T18:53:41.506Z,9.50
2019-04-29T18:56:10.630Z,9.40
2019-04-29T18:58:42.117Z,9.30
2019-04-29T19:01:07.530Z,9.20
2019-04-29T19:03:41.955Z,9.00
2019-04-29T19:06:11.319Z,9.00
2019-04-29T19:08:38.803Z,9.00
2019-04-29T19:11:07.207Z,8.90
2019-04-29T19:13:36.301Z,8.80
2019-04-29T19:16:10.256Z,8.80
2019-04-29T19:18:32.913Z,8.80
2019-04-29T19:21:01.369Z,8.70
2019-04-29T19:23:29.859Z,8.60
2019-04-29T19:25:58.248Z,8.50
2019-04-29T19:28:30.656Z,8.50
2019-04-29T19:30:56.048Z,8.40
2019-04-29T19:33:25.077Z,8.30
2019-04-29T19:35:51.876Z,8.20
2019-04-29T19:38:20.336Z,8.10
2019-04-29T19:40:48.760Z,8.00
2019-04-29T19:43:18.903Z,7.80
2019-04-29T19:45:48.980Z,7.80
2019-04-29T19:48:16.128Z,7.60
2019-04-29T19:50:45.130Z,7.60
2019-04-29T19:53:11.957Z,7.50
2019-04-29T19:55:41.951Z,7.40
2019-04-29T19:58:12.518Z,7.40
2019-04-29T20:00:39.055Z,7.40
2019-04-29T20:03:20.256Z,7.30
2019-04-29T20:05:40.508Z,7.20
2019-04-29T20:08:09.061Z,7.10
2019-04-29T20:10:46.011Z,7.00
2019-04-29T20:13:06.333Z,6.90
2019-04-29T20:15:37.796Z,6.90
2019-04-29T20:18:23.671Z,6.80
2019-04-29T20:20:49.289Z,6.80
2019-04-29T20:23:25.069Z,6.70
2019-04-29T20:25:48.476Z,6.60
2019-04-29T20:28:19.761Z,6.60
2019-04-29T20:30:45.516Z,6.50
2019-04-29T20:33:12.823Z,6.40
2019-04-29T20:35:45.335Z,6.40
2019-04-29T20:38:09.252Z,6.40
2019-04-29T20:40:42.986Z,6.30
2019-04-29T20:45:40.621Z,6.20
2019-04-29T20:48:11.064Z,6.10
2019-04-29T20:50:37.458Z,6.10
2019-04-29T20:53:19.770Z,6.00
2019-04-29T20:55:48.778Z,5.90
2019-04-29T20:58:17.286Z,5.80
2019-04-29T21:00:45.650Z,5.90
2019-04-29T21:03:14.032Z,5.80
2019-04-29T21:05:48.299Z,5.80
2019-04-29T21:08:16.177Z,5.70
2019-04-29T21:10:43.050Z,5.60
2019-04-29T21:13:16.337Z,5.60
2019-04-29T21:15:53.242Z,5.50
2019-04-29T21:18:19.902Z,5.50
2019-04-29T21:20:48.607Z,5.40
2019-04-29T21:23:17.109Z,5.40
2019-04-29T21:25:45.876Z,5.40
2019-04-29T21:28:14.352Z,5.30
2019-04-29T21:30:45.055Z,5.20
2019-04-29T21:33:18.218Z,5.20
2019-04-29T21:35:56.371Z,5.10
2019-04-29T21:39:01.397Z,5.00
2019-04-29T21:41:29.983Z,5.00
2019-04-29T21:43:58.324Z,4.90
2019-04-29T21:46:29.551Z,4.90
2019-04-29T21:48:55.789Z,4.80
2019-04-29T21:51:25.561Z,4.80
2019-04-29T21:53:53.100Z,4.70
2019-04-29T21:56:21.782Z,4.70
2019-04-29T21:58:50.567Z,4.70
2019-04-29T22:01:18.932Z,4.60
2019-04-29T22:03:47.278Z,4.60
2019-04-29T22:06:15.814Z,4.50
2019-04-29T22:08:45.228Z,4.50
2019-04-29T22:11:12.943Z,4.40
2019-04-29T22:13:41.334Z,4.40
2019-04-29T22:16:11.485Z,4.40
2019-04-29T22:18:38.718Z,4.40
2019-04-29T22:21:10.042Z,4.40
2019-04-29T22:23:35.580Z,4.40
2019-04-29T22:26:05.117Z,4.40
2019-04-29T22:28:34.972Z,4.30
2019-04-29T22:31:01.630Z,4.30
2019-04-29T22:33:34.992Z,4.20
2019-04-29T22:35:58.295Z,4.10
2019-04-29T22:38:26.628Z,4.10
2019-04-29T22:40:55.127Z,4.00
2019-04-29T22:43:30.558Z,4.00
2019-04-29T22:45:59.127Z,3.90
2019-04-29T22:48:27.541Z,3.90
2019-04-29T22:50:55.880Z,3.90
2019-04-29T22:53:24.886Z,3.90
2019-04-29T22:55:52.835Z,3.80
2019-04-29T22:58:21.321Z,3.80
2019-04-29T23:00:49.685Z,3.80
2019-04-29T23:03:17.966Z,3.80
2019-04-29T23:05:46.471Z,3.70
2019-04-29T23:08:15.214Z,3.80
2019-04-29T23:10:43.486Z,3.80
2019-04-29T23:13:12.139Z,3.70
2019-04-29T23:15:40.563Z,3.70
2019-04-29T23:18:08.992Z,3.70
2019-04-29T23:20:50.562Z,3.80
2019-04-29T23:23:26.817Z,3.80
2019-04-29T23:25:52.797Z,3.80
2019-04-29T23:28:22.541Z,3.80
2019-04-29T23:30:52.180Z,3.80
2019-04-29T23:33:23.012Z,3.70
2019-04-29T23:35:46.971Z,3.70
2019-04-29T23:38:15.675Z,3.70
2019-04-29T23:40:44.279Z,3.70
2019-04-29T23:43:12.743Z,3.70
2019-04-29T23:45:41.148Z,3.60
2019-04-29T23:48:09.802Z,3.60
2019-04-29T23:50:38.202Z,3.50
2019-04-29T23:53:06.556Z,3.50
2019-04-29T23:55:35.673Z,3.50
2019-04-29T23:58:25.892Z,3.50
